Thunder radar more information blitzortung!


Radar de pluja more information rain snow radar


Visita la nostra xarxa de llocs de meteo:

Template documentation
and downloads

And another site



No particular awareness of the weather is required.    There are no Weather-warnings

Pagina Historial Weather Underground text

Diari Resum May 11, 2016 Unitats:  Mètric    Imperial   Tant
« Previous Dia
SegĂźent Dia »
Diari Setmana Mensual Anual Personalitzada
  Maxima: Minima: Media:
Temperatura: -17.8 °C -12.2 °C -9 °C
Punt de rosada: -17.8 °C -14 °C -12.4 °C
Humitat: Humidity % 41 % 68 %
Wind Speed: 0 km/h 0 km/h 11.4 km/h
RĂ fegues de vent: 0 km/h - -
Vent:- - SW
Pression baro: 0 hPa 33958.2 hPa -
Precipitacions: 25.4 mm    
Historical Graphs
 
 
Dades de taula per May 11, 2016
Temps Temperatura Punt de rosada Pression baro Vent Wind Speed RĂ fegues de vent Humitat Rainfall Rate (Hourly)
-17.8 °C -17.8 °C 0 hPa Calm     Humidity % 0 mm
00:04 -10.7 °C -11.3 °C 34164.7 hPa Calm     92 % 0 mm
00:05 -11.9 °C -12.6 °C 34097 hPa NW 2.6 km/h 5.1 km/h 93 % 0 mm
00:15 -11.9 °C -12.6 °C 34063.2 hPa Calm   2.6 km/h 93 % 0 mm
00:25 -12 °C -12.6 °C 34063.2 hPa Calm   5.1 km/h 93 % 0 mm
00:35 -12.1 °C -12.7 °C 34063.2 hPa Calm   7.7 km/h 92 % 0 mm
00:45 -12 °C -12.6 °C 34063.2 hPa Calm     93 % 0 mm
00:55 -12.2 °C -12.8 °C 34063.2 hPa WSW 2.6 km/h 7.7 km/h 93 % 0 mm
01:05 -12.1 °C -12.7 °C 34063.2 hPa Calm   7.7 km/h 93 % 0 mm
01:15 -12.2 °C -12.8 °C 34063.2 hPa Calm   2.6 km/h 93 % 0 mm
01:25 -12.2 °C -12.8 °C 34097 hPa WSW 2.6 km/h 7.7 km/h 93 % 0 mm
01:35 -12.2 °C -12.8 °C 34097 hPa WSW 2.6 km/h 5.1 km/h 93 % 0 mm
01:45 -12.2 °C -12.8 °C 34097 hPa Calm   2.6 km/h 93 % 0 mm
01:55 -12.2 °C -12.8 °C 34097 hPa Calm     93 % 0 mm
02:05 -12.1 °C -12.6 °C 34097 hPa NNW 2.6 km/h 5.1 km/h 94 % 0 mm
02:15 -12.2 °C -12.7 °C 34097 hPa Calm   7.7 km/h 94 % 0 mm
02:25 -12 °C -12.6 °C 34097 hPa NE 2.6 km/h 5.1 km/h 93 % 0 mm
02:35 -11.9 °C -12.6 °C 34097 hPa SW 2.6 km/h 5.1 km/h 93 % 0 mm
02:45 -11.9 °C -12.4 °C 34097 hPa Calm     94 % 0 mm
03:05 -11.8 °C -12.3 °C 34130.9 hPa Calm     94 % 0 mm
03:15 -11.7 °C -12.2 °C 34097 hPa Calm     94 % 0 mm
03:25 -11.7 °C -12.2 °C 34097 hPa NW 2.6 km/h 5.1 km/h 94 % 0 mm
03:35 -11.6 °C -12.1 °C 34097 hPa Calm   2.6 km/h 94 % 0 mm
03:45 -11.5 °C -12 °C 34097 hPa Calm     94 % 0 mm
03:55 -11.3 °C -11.8 °C 34097 hPa Calm     95 % 0 mm
04:05 -11.3 °C -11.8 °C 34097 hPa Calm     94 % 0 mm
04:15 -11.1 °C -11.6 °C 34097 hPa Calm     94 % 0 mm
04:25 -10.8 °C -11.3 °C 34097 hPa Calm     94 % 0 mm
04:35 -10.6 °C -11.1 °C 34097 hPa ESE 2.6 km/h 5.1 km/h 94 % 0 mm
04:45 -10.5 °C -11.1 °C 34097 hPa SSW 2.6 km/h 5.1 km/h 93 % 25.4 mm
04:55 -10.3 °C -10.9 °C 34097 hPa SW 5.1 km/h 10.3 km/h 93 % 25.4 mm
05:05 -10.2 °C -10.8 °C 34097 hPa SW 2.6 km/h 7.7 km/h 93 % 0 mm
05:15 -10.2 °C -10.8 °C 34097 hPa SW 7.7 km/h 7.7 km/h 93 % 0 mm
05:25 -10.1 °C -10.8 °C 34097 hPa WSW 7.7 km/h 7.7 km/h 92 % 0 mm
05:35 -9.9 °C -11 °C 34097 hPa WSW 7.7 km/h 12.9 km/h 88 % 0 mm
05:45 -9.8 °C -11.4 °C 34097 hPa WSW 5.1 km/h 10.3 km/h 83 % 0 mm
05:55 -9.7 °C -11.2 °C 34097 hPa West 2.6 km/h 7.7 km/h 84 % 0 mm
06:05 -9.7 °C -11.3 °C 34097 hPa West 5.1 km/h 12.9 km/h 83 % 0 mm
06:10 -9.7 °C -11.3 °C 34097 hPa WSW 7.7 km/h 10.3 km/h 83 % 0 mm
11:13 -9.7 °C -11.5 °C 34097 hPa WSW 11.9 km/h 11.9 km/h 81 % 25.4 mm
11:18 -9.7 °C -11.6 °C 34097 hPa SSW 11.9 km/h 11.9 km/h 80 % 25.4 mm
11:23 -9.7 °C -11.6 °C 34097 hPa WSW 11.9 km/h 11.9 km/h 80 % 0 mm
11:28 -9.7 °C -11.8 °C 34097 hPa SW 11.9 km/h 11.9 km/h 78 % 0 mm
11:33 -9.7 °C -12 °C 34097 hPa NW 23.8 km/h 23.8 km/h 76 % 0 mm
11:38 -9.7 °C -12.1 °C 34097 hPa WSW 16.1 km/h 16.1 km/h 76 % 0 mm
11:43 -9.8 °C -12.1 °C 34097 hPa WSW 17.9 km/h 17.9 km/h 77 % 0 mm
11:48 -9.8 °C -11.9 °C 34097 hPa South 11.9 km/h 11.9 km/h 78 % 0 mm
11:53 -9.8 °C -11.8 °C 34097 hPa WSW 9 km/h 9 km/h 79 % 0 mm
11:58 -9.5 °C -11.6 °C 34097 hPa SSE 6 km/h 6 km/h 78 % 0 mm
12:03 -9.2 °C -11.3 °C 34097 hPa ESE 9 km/h 9 km/h 78 % 0 mm
12:08 -8.9 °C -11.1 °C 34029.3 hPa East 9 km/h 9 km/h 78 % 0 mm
12:13 -8.7 °C -10.9 °C 34029.3 hPa NNW 9.8 km/h 9.8 km/h 77 % 0 mm
12:18 -8.7 °C -11.2 °C 34029.3 hPa ENE 17.9 km/h 17.9 km/h 74 % 0 mm
12:28 -8.3 °C -11 °C 34063.2 hPa NNE 10.3 km/h 10.3 km/h 73 % 0 mm
12:33 -8.3 °C -11 °C 34063.2 hPa ENE 8 km/h 8 km/h 73 % 0 mm
12:38 -8.2 °C -11.1 °C 34063.2 hPa NNE 6 km/h 6 km/h 72 % 0 mm
12:48 -7.8 °C -11.2 °C 34063.2 hPa WSW 9 km/h 9 km/h 68 % 0 mm
12:58 -7.7 °C -11.5 °C 34063.2 hPa WSW 15 km/h 15 km/h 64 % 0 mm
13:03 -7.4 °C -11.4 °C 34063.2 hPa WSW 17.9 km/h 17.9 km/h 63 % 0 mm
13:13 -7.3 °C -11.6 °C 34063.2 hPa WNW 15 km/h 15 km/h 61 % 0 mm
13:18 -7.2 °C -11.5 °C 34063.2 hPa NNW 15 km/h 15 km/h 61 % 0 mm
13:23 -7.1 °C -11.5 °C 34063.2 hPa West 11.9 km/h 11.9 km/h 60 % 0 mm
13:28 -7.1 °C -12 °C 34063.2 hPa WSW 20.9 km/h 20.9 km/h 57 % 0 mm
13:38 -7.2 °C -11.8 °C 34063.2 hPa SW 15.3 km/h 15.3 km/h 58 % 0 mm
13:43 -7.1 °C -12.1 °C 34063.2 hPa West 15 km/h 15 km/h 56 % 0 mm
13:48 -7 °C -12.2 °C 34063.2 hPa SW 20.9 km/h 20.9 km/h 55 % 0 mm
13:53 -7 °C -12.6 °C 34029.3 hPa SW 24.3 km/h 24.3 km/h 52 % 0 mm
13:58 -6.8 °C -12.3 °C 34029.3 hPa WSW 11.9 km/h 11.9 km/h 53 % 0 mm
14:03 -6.8 °C -12.4 °C 34029.3 hPa West 20.9 km/h 20.9 km/h 52 % 0 mm
14:08 -6.8 °C -12.6 °C 34029.3 hPa WSW 17.9 km/h 17.9 km/h 51 % 0 mm
14:13 -6.9 °C -12.6 °C 34029.3 hPa WSW 11.9 km/h 11.9 km/h 52 % 0 mm
14:18 -6.5 °C -12.2 °C 34029.3 hPa SW 9 km/h 9 km/h 52 % 0 mm
14:23 -6.4 °C -12.3 °C 34029.3 hPa WSW 15 km/h 15 km/h 51 % 0 mm
14:28 -6.3 °C -12.1 °C 34029.3 hPa SSW 15 km/h 15 km/h 51 % 0 mm
14:33 -6.2 °C -12.2 °C 34029.3 hPa SW 20.9 km/h 20.9 km/h 50 % 0 mm
14:38 -6.2 °C -12.2 °C 33992.1 hPa West 23.8 km/h 23.8 km/h 50 % 0 mm
14:43 -6.1 °C -12.1 °C 33992.1 hPa WSW 15 km/h 15 km/h 50 % 0 mm
14:48 -6 °C -12.1 °C 33992.1 hPa WNW 15.3 km/h 15.3 km/h 50 % 0 mm
14:53 -5.9 °C -12.1 °C 33992.1 hPa NNW 15 km/h 15 km/h 49 % 0 mm
14:58 -5.7 °C -11.9 °C 33992.1 hPa West 14.5 km/h 14.5 km/h 49 % 0 mm
15:03 -5.7 °C -12.1 °C 33992.1 hPa WSW 22.5 km/h 22.5 km/h 48 % 0 mm
15:08 -5.7 °C -12.2 °C 33992.1 hPa South 17.9 km/h 17.9 km/h 47 % 0 mm
15:13 -5.5 °C -12.1 °C 33992.1 hPa WSW 11.9 km/h 11.9 km/h 47 % 0 mm
15:18 -5.4 °C -12 °C 33992.1 hPa WNW 17.9 km/h 17.9 km/h 47 % 0 mm
15:23 -5.8 °C -12.5 °C 33992.1 hPa WSW 11.9 km/h 11.9 km/h 46 % 0 mm
15:28 -5.9 °C -12.7 °C 33992.1 hPa WSW 11.9 km/h 11.9 km/h 46 % 0 mm
15:33 -5.7 °C -12.4 °C 33992.1 hPa South 9 km/h 9 km/h 46 % 0 mm
15:38 -5.6 °C -12.5 °C 33992.1 hPa WSW 15 km/h 15 km/h 45 % 0 mm
15:43 -5.5 °C -12.3 °C 33992.1 hPa WNW 12.2 km/h 12.2 km/h 46 % 0 mm
15:48 -5.5 °C -12.4 °C 33992.1 hPa WSW 11.9 km/h 11.9 km/h 45 % 0 mm
15:53 -5.7 °C -12.8 °C 33992.1 hPa West 15 km/h 15 km/h 44 % 0 mm
15:58 -5.6 °C -12.7 °C 33992.1 hPa WNW 17.9 km/h 17.9 km/h 44 % 0 mm
16:03 -5.4 °C -12.6 °C 33992.1 hPa SW 17.9 km/h 17.9 km/h 44 % 0 mm
16:08 -5.4 °C -12.6 °C 33992.1 hPa WSW 11.9 km/h 11.9 km/h 44 % 0 mm
16:13 -5.3 °C -12.7 °C 33992.1 hPa WNW 15 km/h 15 km/h 43 % 0 mm
16:18 -5.4 °C -12.6 °C 33992.1 hPa WSW 9 km/h 9 km/h 44 % 0 mm
16:23 -5.2 °C -12.4 °C 33992.1 hPa WSW 9 km/h 9 km/h 44 % 0 mm
16:28 -5.3 °C -12.7 °C 33992.1 hPa WSW 14 km/h 14 km/h 43 % 0 mm
16:38 -5.6 °C -12.9 °C 33992.1 hPa NW 15 km/h 15 km/h 43 % 0 mm
16:43 -5.4 °C -12.6 °C 33992.1 hPa West 11.9 km/h 11.9 km/h 44 % 0 mm
16:48 -5.3 °C -12.9 °C 33992.1 hPa West 17.9 km/h 17.9 km/h 42 % 0 mm
16:53 -5.2 °C -12.6 °C 33958.2 hPa SSW 9 km/h 9 km/h 43 % 0 mm
16:58 -5.1 °C -12.4 °C 33958.2 hPa SW 20.9 km/h 20.9 km/h 43 % 0 mm
17:03 -5.3 °C -12.4 °C 33958.2 hPa West 11.9 km/h 11.9 km/h 44 % 0 mm
17:08 -5.3 °C -12.7 °C 33992.1 hPa SW 9 km/h 9.3 km/h 43 % 0 mm
17:13 -5.2 °C -12.5 °C 33992.1 hPa SSW 11.9 km/h 11.9 km/h 43 % 0 mm
17:28 -5.7 °C -13.4 °C 33958.2 hPa SW 20.9 km/h 20.9 km/h 41 % 0 mm
17:33 -5.8 °C -12.7 °C 33958.2 hPa SW 23.8 km/h 23.8 km/h 45 % 0 mm
17:38 -6.1 °C -12.6 °C 33992.1 hPa SSW 9 km/h 9 km/h 47 % 0 mm
17:43 -6.3 °C -12.4 °C 33992.1 hPa West 17.9 km/h 17.9 km/h 49 % 0 mm
17:48 -6.4 °C -12.6 °C 33992.1 hPa WSW 17.9 km/h 17.9 km/h 49 % 0 mm
17:53 -6.7 °C -12.4 °C 33992.1 hPa South 20.9 km/h 20.9 km/h 51 % 0 mm
17:58 -6.8 °C -12.1 °C 33992.1 hPa SSW 32.8 km/h 32.8 km/h 54 % 0 mm
18:03 -7 °C -11.7 °C 33992.1 hPa SSW 20.9 km/h 20.9 km/h 58 % 0 mm
18:08 -7.2 °C -11.6 °C 33992.1 hPa WSW 26.9 km/h 26.9 km/h 60 % 0 mm
18:13 -7.4 °C -11.4 °C 33992.1 hPa SSW 27.2 km/h 27.2 km/h 63 % 0 mm
18:18 -7.6 °C -11.6 °C 33992.1 hPa WSW 34.9 km/h 34.9 km/h 63 % 0 mm
18:23 -7.7 °C -11.4 °C 33992.1 hPa SW 32.8 km/h 32.8 km/h 65 % 0 mm
18:28 -7.6 °C -10.9 °C 33992.1 hPa SW 20.9 km/h 20.9 km/h 68 % 0 mm
18:38 -7.6 °C -11.2 °C 33992.1 hPa SSW 15 km/h 15 km/h 66 % 0 mm
18:43 -7.5 °C -11.3 °C 33992.1 hPa SW 29.8 km/h 29.8 km/h 64 % 0 mm
18:48 -7.4 °C -11.3 °C 33992.1 hPa SSW 37.5 km/h 37.5 km/h 64 % 0 mm
18:53 -7.5 °C -11.5 °C 33992.1 hPa SW 46 km/h 46 km/h 63 % 0 mm
18:58 -7.9 °C -12 °C 33992.1 hPa SW 26.9 km/h 26.9 km/h 62 % 0 mm
19:03 -7.9 °C -11.9 °C 33992.1 hPa WSW 32.8 km/h 32.8 km/h 63 % 0 mm
19:08 -7.9 °C -12.1 °C 33992.1 hPa SW 32.8 km/h 32.8 km/h 62 % 0 mm
19:13 -8.1 °C -12.2 °C 33992.1 hPa WSW 33.2 km/h 33.2 km/h 62 % 0 mm
19:18 -8.3 °C -12.2 °C 33992.1 hPa WSW 29.8 km/h 29.8 km/h 63 % 0 mm
19:20 -10.5 °C -12.9 °C 34063.2 hPa WSW 5.1 km/h 5.1 km/h 75 % 0 mm
19:23 -8.3 °C -12.3 °C 33992.1 hPa SSW 29.8 km/h 29.8 km/h 63 % 0 mm
19:28 -8.2 °C -12.2 °C 33992.1 hPa WSW 20.9 km/h 20.9 km/h 63 % 0 mm
19:30 -10.5 °C -12.9 °C 34063.2 hPa WSW 5.1 km/h 5.1 km/h 75 % 0 mm
19:33 -8.3 °C -12.3 °C 33992.1 hPa SW 36.2 km/h 36.2 km/h 62 % 0 mm
19:38 -8.3 °C -12.4 °C 33992.1 hPa WSW 32.8 km/h 32.8 km/h 62 % 0 mm
19:40 -10.6 °C -12.9 °C 34063.2 hPa WSW 2.6 km/h 5.1 km/h 76 % 0 mm
19:43 -8.3 °C -12.4 °C 33992.1 hPa WSW 32.8 km/h 32.8 km/h 62 % 0 mm
19:48 -8.3 °C -12.3 °C 33992.1 hPa SSW 32.8 km/h 32.8 km/h 63 % 0 mm
19:50 -10.7 °C -12.8 °C 34063.2 hPa WSW 5.1 km/h 5.1 km/h 77 % 0 mm
19:53 -8.3 °C -12.4 °C 34029.3 hPa WSW 27.7 km/h 27.7 km/h 62 % 0 mm
19:58 -8.4 °C -12.3 °C 34029.3 hPa SW 17.9 km/h 17.9 km/h 63 % 0 mm
20:00 -10.7 °C -12.8 °C 34063.2 hPa WSW 2.6 km/h 5.1 km/h 78 % 0 mm
20:03 -8.4 °C -12.4 °C 34029.3 hPa SW 20.9 km/h 20.9 km/h 63 % 0 mm
20:08 -8.5 °C -12.3 °C 33992.1 hPa SSW 19.6 km/h 19.6 km/h 64 % 0 mm
20:13 -8.6 °C -12.5 °C 33992.1 hPa SSW 20.9 km/h 20.9 km/h 63 % 0 mm
20:18 -8.6 °C -12.4 °C 33992.1 hPa SSW 15.6 km/h 16.6 km/h 64 % 0 mm
20:23 -8.7 °C -12.4 °C 34029.3 hPa WSW 15 km/h 15 km/h 64 % 0 mm
20:28 -8.7 °C -12.5 °C 34029.3 hPa SW 17.9 km/h 17.9 km/h 64 % 0 mm
20:30 -10.7 °C -12.7 °C 34063.2 hPa WSW 2.6 km/h 2.6 km/h 78 % 0 mm
20:33 -8.8 °C -12.5 °C 34029.3 hPa SW 15 km/h 15 km/h 65 % 0 mm
20:38 -8.9 °C -12.6 °C 34029.3 hPa West 20.3 km/h 20.3 km/h 65 % 0 mm
20:40 -10.8 °C -12.7 °C 34063.2 hPa WSW 7.7 km/h 10.3 km/h 79 % 0 mm
20:43 -8.9 °C -12.4 °C 34029.3 hPa SW 17.9 km/h 17.9 km/h 66 % 0 mm
20:48 -9 °C -12.7 °C 34029.3 hPa SSW 15 km/h 15 km/h 65 % 0 mm
20:50 -10.8 °C -12.7 °C 34063.2 hPa Calm   7.7 km/h 80 % 0 mm
20:53 -9 °C -12.7 °C 34029.3 hPa SW 17.9 km/h 17.9 km/h 65 % 0 mm
20:58 -9.1 °C -12.7 °C 34029.3 hPa SW 17.9 km/h 17.9 km/h 65 % 0 mm
21:00 -10.9 °C -12.7 °C 34063.2 hPa Calm     80 % 0 mm
21:03 -9.2 °C -12.8 °C 34029.3 hPa SW 11.9 km/h 11.9 km/h 65 % 0 mm
21:08 -9.3 °C -12.9 °C 34063.2 hPa WSW 9.3 km/h 9.3 km/h 65 % 0 mm
21:10 -10.9 °C -12.9 °C 34063.2 hPa WSW 2.6 km/h 7.7 km/h 79 % 0 mm
21:13 -9.3 °C -12.9 °C 34063.2 hPa WSW 15 km/h 15 km/h 65 % 0 mm
21:18 -9.3 °C -13.1 °C 34063.2 hPa SW 11.9 km/h 11.9 km/h 64 % 0 mm
21:20 -11 °C -12.9 °C 34063.2 hPa SW 5.1 km/h 5.1 km/h 80 % 0 mm
21:23 -9.4 °C -13 °C 34063.2 hPa WSW 9 km/h 9 km/h 65 % 0 mm
21:29 -9.4 °C -13.1 °C 34063.2 hPa WSW 6 km/h 6 km/h 65 % 0 mm
21:30 -11.2 °C -13.1 °C 34029.3 hPa Calm   7.7 km/h 80 % 0 mm
21:34 -9.4 °C -13.1 °C 34063.2 hPa WSW 6 km/h 6 km/h 65 % 0 mm
21:39 -9.4 °C -13.1 °C 34063.2 hPa WSW 6 km/h 6 km/h 65 % 0 mm
21:40 -11.4 °C -13.2 °C 34063.2 hPa Calm   5.1 km/h 80 % 0 mm
21:49 -9.5 °C -13.1 °C 34063.2 hPa SW 6 km/h   65 % 0 mm
21:50 -11.6 °C -13.4 °C 34063.2 hPa Calm     80 % 0 mm
21:54 -9.6 °C -13.1 °C 34029.3 hPa SW 3.7 km/h   66 % 0 mm
21:59 -9.8 °C -13.3 °C 34029.3 hPa SSW 6.3 km/h 6.3 km/h 66 % 0 mm
22:00 -11.7 °C -13.6 °C 34063.2 hPa North 5.1 km/h 7.7 km/h 80 % 0 mm
22:04 -9.8 °C -13.2 °C 34029.3 hPa WSW 6 km/h 6 km/h 67 % 0 mm
22:09 -9.9 °C -13.2 °C 34063.2 hPa SW 6 km/h 6.3 km/h 67 % 0 mm
22:10 -11.9 °C -13.8 °C 34029.3 hPa ENE 5.1 km/h 15.6 km/h 80 % 0 mm
22:14 -9.9 °C -13.2 °C 34063.2 hPa WSW 6.8 km/h 6.8 km/h 68 % 0 mm
22:19 -10 °C -13.2 °C 34063.2 hPa SW 9 km/h 9 km/h 68 % 0 mm
22:20 -12.1 °C -13.8 °C 34029.3 hPa Calm   5.1 km/h 81 % 0 mm
22:24 -9.9 °C -13.1 °C 34029.3 hPa SW 9.8 km/h 9.8 km/h 69 % 0 mm
22:29 -9.9 °C -13.1 °C 34029.3 hPa SW 9 km/h 9 km/h 69 % 0 mm
22:30 -12.1 °C -13.8 °C 34063.2 hPa Calm     81 % 0 mm
22:34 -9.9 °C -13 °C 34029.3 hPa SW 11.9 km/h 11.9 km/h 69 % 0 mm
22:39 -9.9 °C -13 °C 34063.2 hPa South 12.7 km/h 12.7 km/h 69 % 0 mm
22:40 -12.1 °C -13.8 °C 34063.2 hPa Calm   2.6 km/h 81 % 0 mm
22:44 -9.9 °C -13.2 °C 34063.2 hPa WSW 9 km/h 9 km/h 68 % 0 mm
22:49 -10 °C -13.1 °C 34063.2 hPa SW 9.8 km/h 9.8 km/h 69 % 0 mm
22:50 -12.1 °C -13.8 °C 34063.2 hPa Calm   2.6 km/h 81 % 0 mm
22:54 -10 °C -13.1 °C 34029.3 hPa WSW 9 km/h 9 km/h 69 % 0 mm
22:59 -10 °C -13.1 °C 34029.3 hPa WSW 9 km/h 9 km/h 69 % 0 mm
23:00 -12.1 °C -13.8 °C 34063.2 hPa Calm   5.1 km/h 81 % 0 mm
23:04 -10.1 °C -13.2 °C 34029.3 hPa SW 6 km/h 6 km/h 69 % 0 mm
23:09 -10.1 °C -13.2 °C 34063.2 hPa SSW 7.6 km/h 7.6 km/h 69 % 0 mm
23:10 -12.1 °C -13.8 °C 34029.3 hPa NE 2.6 km/h 7.7 km/h 81 % 0 mm
23:14 -10.2 °C -13.2 °C 34063.2 hPa WNW 9 km/h 9 km/h 70 % 0 mm
23:19 -10.2 °C -13.2 °C 34063.2 hPa WSW 6 km/h 6 km/h 70 % 0 mm
23:20 -12.1 °C -13.8 °C 34029.3 hPa Calm   5.1 km/h 81 % 0 mm
23:24 -10.2 °C -13 °C 34063.2 hPa WSW 6 km/h 6 km/h 71 % 0 mm
23:29 -10.2 °C -13.1 °C 34063.2 hPa WSW 3.1 km/h   71 % 0 mm
23:30 -12.1 °C -13.8 °C 34063.2 hPa NE 2.6 km/h 7.7 km/h 81 % 0 mm
23:34 -10.2 °C -12.9 °C 34063.2 hPa West 6 km/h 6 km/h 72 % 0 mm
23:39 -10.2 °C -12.9 °C 34063.2 hPa WSW 6 km/h 6 km/h 72 % 0 mm
23:40 -12.1 °C -13.8 °C 34063.2 hPa NE 2.6 km/h 5.1 km/h 81 % 0 mm
23:44 -10.3 °C -13 °C 34063.2 hPa SW 7.6 km/h 7.6 km/h 72 % 0 mm
23:49 -10.3 °C -13 °C 34063.2 hPa WSW 6.8 km/h 6.8 km/h 72 % 0 mm
23:50 -12.2 °C -14 °C 34063.2 hPa NE 2.6 km/h 5.1 km/h 80 % 0 mm
23:54 -10.3 °C -12.9 °C 34063.2 hPa WSW 6.3 km/h 6.3 km/h 73 % 0 mm
23:59 -10.3 °C -12.9 °C 34063.2 hPa WSW 6 km/h 6 km/h 73 % 0 mm
Meteo Sesrovires
Elogis d' Weather Underground - 1.5 mb

Guio original per  Jim McMurry - jmcmurry@mwt.net Adaptat per a la plantilla per  Wim van der Kuil - Leuven-Template.eu

Trobareu la nostra informacio del temps tambe a:

Weather Underground

AWEKAS